Southwest Washington Regional Airport Kelso US
ICAO: KKLS
IATA: KLS
Category: Medium
Scheduled Services: No

Elevation: 20 ft
TransAlt. 18000 ft.

Airport Communications:
AWOS 3:135.075
SEATTLE CNTR:124.2
SEATTLE RDO:122.25
CTAF/UNICOM:122.8

KKLS Zoom In..

Runways:

(A) RW 12 length 4391 ft width 100 ft
---- / hdg 123

(B) RW 30 length 4391 ft width 100 ft
---- / hdg 303

Location; KKLS
Day. 06 / Time. 05.56 Zulu
* Altimeter: 29.92
* Temperature: 6/° c. 42.8°f.
* Wind from: 000° Speed 00 kn.
Dewpoint: //° c.
Visibility: 10 Statute Miles.
Clouds: Scattered 2000 ft.

KKLS 060556Z AUTO 00000KT 10SM SCT020 17/13 A2992 RMK AO2 SLP136 6//// T01670128 10250 20167 50005 PNO $

Going to: --> -->


Wind - Calm.

 
 
jpsmedia worldairports.se 2020   terms of use